createdAt,value
2022-12-25T00:02:05.615Z,11.33
2022-12-25T00:05:08.907Z,11.27
2022-12-25T00:08:11.703Z,11.36
2022-12-25T00:11:17.194Z,12.26
2022-12-25T00:14:20.229Z,13.09
2022-12-25T00:17:23.137Z,12.00
2022-12-25T00:20:25.949Z,10.86
2022-12-25T00:23:29.348Z,9.99
2022-12-25T00:26:32.493Z,9.63
2022-12-25T00:29:35.519Z,10.32
2022-12-25T00:32:38.555Z,10.66
2022-12-25T00:35:41.515Z,10.80
2022-12-25T00:38:46.686Z,10.99
2022-12-25T00:42:08.242Z,11.65
2022-12-25T00:45:11.058Z,12.59
2022-12-25T00:48:13.883Z,13.19
2022-12-25T00:51:16.699Z,12.74
2022-12-25T00:54:19.921Z,11.44
2022-12-25T00:57:23.012Z,10.43
2022-12-25T01:00:25.872Z,10.57
2022-12-25T01:03:28.827Z,11.75
2022-12-25T01:06:32.503Z,12.49
2022-12-25T01:09:54.066Z,12.67
2022-12-25T01:12:57.013Z,11.37
2022-12-25T01:15:59.925Z,10.22
2022-12-25T01:19:03.787Z,9.79
2022-12-25T01:22:06.884Z,10.92
2022-12-25T01:25:10.767Z,12.21
2022-12-25T01:28:13.850Z,12.36
2022-12-25T01:31:18.912Z,11.32
2022-12-25T01:34:21.815Z,10.21
2022-12-25T01:37:25.603Z,10.01
2022-12-25T01:40:28.483Z,11.90
2022-12-25T01:43:33.732Z,13.43
2022-12-25T01:46:36.784Z,13.03
2022-12-25T01:49:42.556Z,11.57
2022-12-25T01:52:46.579Z,10.43
2022-12-25T01:55:54.622Z,9.98
2022-12-25T01:58:58.623Z,10.80
2022-12-25T02:02:01.877Z,11.35
2022-12-25T02:05:13.992Z,11.79
2022-12-25T02:08:20.616Z,12.63
2022-12-25T02:11:42.055Z,13.21
2022-12-25T02:14:46.094Z,11.89
2022-12-25T02:18:03.012Z,10.68
2022-12-25T02:22:00.456Z,9.79
2022-12-25T02:25:38.721Z,9.82
2022-12-25T02:28:47.670Z,10.76
2022-12-25T02:31:53.622Z,11.10
2022-12-25T02:35:03.176Z,11.24
2022-12-25T02:38:20.352Z,11.28
2022-12-25T02:41:23.338Z,11.18
2022-12-25T02:45:01.279Z,11.50
2022-12-25T02:48:24.033Z,11.91
2022-12-25T02:51:50.119Z,12.01
2022-12-25T02:55:18.550Z,11.95
2022-12-25T02:58:43.126Z,10.91
2022-12-25T03:02:05.331Z,9.90
2022-12-25T03:05:31.458Z,9.23
2022-12-25T03:08:41.606Z,9.78
2022-12-25T03:11:52.484Z,10.93
2022-12-25T03:15:13.988Z,11.59
2022-12-25T03:18:20.052Z,11.94
2022-12-25T03:21:41.654Z,12.04
2022-12-25T03:25:03.149Z,10.82
2022-12-25T03:28:06.627Z,9.72
2022-12-25T03:31:30.494Z,9.23
2022-12-25T03:35:12.526Z,9.58
2022-12-25T03:38:48.465Z,9.82
2022-12-25T03:42:17.046Z,10.08
2022-12-25T03:45:47.699Z,10.58
2022-12-25T03:49:17.252Z,10.96
2022-12-25T03:52:39.985Z,12.10
2022-12-25T03:56:02.582Z,12.63
2022-12-25T03:59:24.462Z,11.33
2022-12-25T04:02:46.509Z,10.03
2022-12-25T04:06:25.215Z,9.23
2022-12-25T04:09:47.003Z,9.07
2022-12-25T04:13:08.364Z,8.99
2022-12-25T04:16:30.003Z,8.85
2022-12-25T04:19:58.710Z,8.47
2022-12-25T04:23:20.364Z,8.13
2022-12-25T04:26:42.045Z,8.38
2022-12-25T04:30:11.038Z,9.34
2022-12-25T04:33:32.614Z,9.52
2022-12-25T04:36:35.423Z,9.40
2022-12-25T04:39:38.238Z,9.34
2022-12-25T04:42:42.318Z,9.27
2022-12-25T04:45:55.830Z,9.05
2022-12-25T04:48:58.656Z,8.74
2022-12-25T04:52:01.462Z,8.51
2022-12-25T04:55:05.305Z,8.52
2022-12-25T04:58:08.471Z,8.26
2022-12-25T05:01:12.660Z,7.95
2022-12-25T05:04:15.453Z,8.05
2022-12-25T05:07:18.261Z,8.20
2022-12-25T05:10:21.160Z,8.08
2022-12-25T05:13:24.939Z,8.03
2022-12-25T05:16:28.013Z,8.65
2022-12-25T05:19:31.857Z,9.22
2022-12-25T05:22:34.777Z,9.75
2022-12-25T05:25:41.126Z,10.02
2022-12-25T05:28:43.930Z,10.37
2022-12-25T05:31:46.881Z,10.25
2022-12-25T05:34:49.749Z,10.24
2022-12-25T05:37:52.589Z,10.35
2022-12-25T05:40:55.435Z,10.49
2022-12-25T05:43:58.259Z,10.41
2022-12-25T05:47:01.118Z,9.31
2022-12-25T05:50:05.135Z,8.18
2022-12-25T05:53:09.612Z,7.64
2022-12-25T05:56:12.642Z,8.21
2022-12-25T05:59:15.487Z,8.63
2022-12-25T06:02:18.417Z,8.66
2022-12-25T06:05:21.409Z,8.68
2022-12-25T06:08:24.309Z,8.72
2022-12-25T06:11:27.264Z,8.81
2022-12-25T06:14:30.130Z,9.09
2022-12-25T06:17:33.089Z,9.51
2022-12-25T06:20:36.029Z,9.80
2022-12-25T06:23:39.371Z,9.96
2022-12-25T06:26:42.596Z,10.02
2022-12-25T06:29:45.580Z,9.72
2022-12-25T06:32:48.697Z,8.49
2022-12-25T06:35:51.522Z,7.39
2022-12-25T06:38:54.524Z,6.95
2022-12-25T06:41:57.541Z,7.93
2022-12-25T06:45:00.383Z,9.55
2022-12-25T06:48:03.412Z,10.75
2022-12-25T06:51:07.349Z,10.10
2022-12-25T06:54:11.836Z,8.46
2022-12-25T06:57:14.716Z,7.26
2022-12-25T07:00:17.707Z,6.92
2022-12-25T07:03:22.278Z,8.11
2022-12-25T07:06:25.729Z,9.57
2022-12-25T07:09:28.603Z,10.08
2022-12-25T07:12:31.416Z,10.09
2022-12-25T07:15:34.303Z,8.78
2022-12-25T07:18:37.447Z,7.57
2022-12-25T07:21:40.347Z,7.24
2022-12-25T07:24:43.573Z,8.21
2022-12-25T07:27:46.535Z,8.99
2022-12-25T07:30:49.695Z,10.18
2022-12-25T07:33:55.839Z,9.80
2022-12-25T07:36:58.919Z,8.48
2022-12-25T07:40:02.322Z,7.50
2022-12-25T07:43:05.676Z,7.22
2022-12-25T07:46:09.726Z,9.05
2022-12-25T07:49:12.922Z,10.92
2022-12-25T07:52:16.068Z,11.39
2022-12-25T07:55:19.107Z,10.04
2022-12-25T07:58:23.595Z,8.79
2022-12-25T08:01:28.111Z,7.95
2022-12-25T08:04:31.776Z,7.87
2022-12-25T08:07:38.792Z,9.77
2022-12-25T08:10:46.651Z,11.40
2022-12-25T08:13:50.440Z,10.94
2022-12-25T08:16:53.926Z,9.65
2022-12-25T08:19:58.006Z,8.75
2022-12-25T08:23:02.244Z,8.16
2022-12-25T08:26:09.236Z,8.41
2022-12-25T08:29:13.577Z,10.35
2022-12-25T08:32:18.936Z,11.29
2022-12-25T08:35:28.275Z,11.12
2022-12-25T08:38:34.229Z,10.05
2022-12-25T08:41:39.112Z,9.25
2022-12-25T08:44:48.801Z,8.72
2022-12-25T08:47:57.800Z,8.78
2022-12-25T08:51:03.780Z,10.26
2022-12-25T08:54:06.708Z,11.11
2022-12-25T08:57:09.930Z,11.57
2022-12-25T09:00:13.367Z,11.18
2022-12-25T09:03:16.204Z,10.32
2022-12-25T09:06:19.050Z,9.71
2022-12-25T09:09:27.370Z,9.28
2022-12-25T09:12:30.178Z,9.36
2022-12-25T09:15:32.994Z,10.60
2022-12-25T09:18:36.036Z,11.37
2022-12-25T09:21:38.869Z,11.70
2022-12-25T09:24:43.825Z,12.15
2022-12-25T09:27:46.740Z,11.73
2022-12-25T09:30:53.234Z,10.88
2022-12-25T09:33:58.126Z,10.25
2022-12-25T09:37:02.003Z,9.85
2022-12-25T09:40:05.564Z,9.78
2022-12-25T09:43:16.789Z,10.60
2022-12-25T09:46:23.886Z,11.33
2022-12-25T09:49:47.260Z,11.72
2022-12-25T09:53:17.307Z,12.25
2022-12-25T09:56:27.101Z,12.62
2022-12-25T09:59:30.757Z,11.76
2022-12-25T10:02:48.316Z,11.05
2022-12-25T10:06:13.370Z,10.55
2022-12-25T10:09:27.517Z,10.18
2022-12-25T10:12:37.096Z,10.22
2022-12-25T10:16:03.193Z,10.99
2022-12-25T10:19:18.129Z,11.63
2022-12-25T10:22:38.030Z,11.99
2022-12-25T10:25:41.968Z,12.35
2022-12-25T10:28:47.889Z,12.35
2022-12-25T10:31:55.459Z,11.63
2022-12-25T10:34:58.368Z,10.99
2022-12-25T10:38:19.072Z,11.11
2022-12-25T10:41:59.805Z,11.63
2022-12-25T10:45:08.246Z,12.08
2022-12-25T10:48:25.933Z,12.27
2022-12-25T10:51:31.820Z,11.58
2022-12-25T10:54:36.113Z,10.93
2022-12-25T10:57:46.142Z,10.46
2022-12-25T11:00:54.567Z,10.42
2022-12-25T11:03:57.623Z,10.99
2022-12-25T11:07:18.627Z,11.21
2022-12-25T11:10:31.190Z,11.25
2022-12-25T11:13:47.777Z,11.27
2022-12-25T11:16:50.654Z,11.51
2022-12-25T11:19:59.424Z,11.82
2022-12-25T11:23:02.229Z,12.17
2022-12-25T11:26:07.879Z,12.36
2022-12-25T11:29:35.323Z,12.22
2022-12-25T11:32:43.592Z,11.37
2022-12-25T11:35:53.020Z,10.73
2022-12-25T11:38:57.394Z,10.53
2022-12-25T11:42:21.339Z,11.10
2022-12-25T11:45:27.039Z,11.30
2022-12-25T11:48:34.207Z,11.31
2022-12-25T11:51:42.306Z,11.53
2022-12-25T11:54:55.034Z,11.72
2022-12-25T11:58:04.890Z,11.90
2022-12-25T12:01:27.707Z,11.58
2022-12-25T12:04:42.693Z,10.71
2022-12-25T12:08:06.320Z,10.22
2022-12-25T12:11:20.703Z,10.57
2022-12-25T12:14:23.522Z,11.09
2022-12-25T12:17:26.680Z,11.40
2022-12-25T12:20:35.592Z,11.46
2022-12-25T12:24:10.788Z,12.32
2022-12-25T12:27:32.238Z,13.30
2022-12-25T12:30:35.721Z,12.02
2022-12-25T12:33:44.215Z,10.98
2022-12-25T12:36:47.063Z,10.24
2022-12-25T12:39:54.225Z,9.92
2022-12-25T12:42:57.090Z,10.26
2022-12-25T12:46:16.192Z,10.35
2022-12-25T12:49:28.491Z,10.37
2022-12-25T12:52:38.995Z,10.34
2022-12-25T12:55:42.039Z,10.83
2022-12-25T12:58:51.124Z,12.04
2022-12-25T13:02:11.135Z,12.80
2022-12-25T13:05:41.378Z,11.70
2022-12-25T13:09:05.125Z,10.61
2022-12-25T13:12:08.917Z,9.86
2022-12-25T13:15:14.043Z,9.85
2022-12-25T13:18:17.558Z,11.75
2022-12-25T13:21:26.917Z,12.85
2022-12-25T13:24:32.602Z,11.85
2022-12-25T13:27:35.557Z,10.80
2022-12-25T13:30:38.435Z,10.08
2022-12-25T13:33:45.662Z,9.54
2022-12-25T13:36:48.672Z,9.09
2022-12-25T13:39:55.159Z,9.34
2022-12-25T13:43:01.920Z,10.18
2022-12-25T13:46:05.545Z,10.44
2022-12-25T13:49:17.949Z,10.45
2022-12-25T13:52:28.656Z,10.41
2022-12-25T13:55:33.851Z,10.47
2022-12-25T13:58:37.465Z,10.54
2022-12-25T14:01:45.097Z,10.44
2022-12-25T14:04:48.123Z,10.58
2022-12-25T14:07:53.546Z,10.60
2022-12-25T14:10:57.516Z,10.57
2022-12-25T14:14:04.254Z,10.48
2022-12-25T14:17:07.243Z,10.52
2022-12-25T14:20:26.209Z,10.86
2022-12-25T14:23:43.393Z,11.12
2022-12-25T14:26:46.295Z,10.56
2022-12-25T14:29:51.899Z,9.49
2022-12-25T14:32:56.007Z,8.59
2022-12-25T14:35:59.276Z,7.89
2022-12-25T14:39:05.840Z,7.66
2022-12-25T14:42:23.859Z,8.32
2022-12-25T14:45:35.002Z,8.59
2022-12-25T14:48:37.782Z,8.49
2022-12-25T14:51:43.142Z,8.40
2022-12-25T14:54:49.134Z,9.23
2022-12-25T14:57:57.176Z,10.12
2022-12-25T15:01:02.932Z,10.84
2022-12-25T15:04:13.358Z,10.76
2022-12-25T15:07:30.846Z,9.43
2022-12-25T15:13:57.774Z,7.78
2022-12-25T15:17:01.695Z,9.60
2022-12-25T15:20:05.583Z,11.04
2022-12-25T15:23:20.083Z,10.94
2022-12-25T15:26:24.293Z,9.26
2022-12-25T15:30:00.160Z,8.00
2022-12-25T15:32:50.328Z,7.40
2022-12-25T15:35:53.175Z,8.05
2022-12-25T15:38:56.843Z,8.53
2022-12-25T15:42:12.762Z,9.03
2022-12-25T15:45:25.717Z,10.23
2022-12-25T15:48:28.809Z,10.69
2022-12-25T15:51:32.026Z,10.50
2022-12-25T15:54:34.915Z,9.25
2022-12-25T15:57:41.081Z,8.19
2022-12-25T16:00:51.656Z,7.72
2022-12-25T16:03:54.670Z,8.59
2022-12-25T16:06:58.159Z,9.95
2022-12-25T16:10:01.067Z,10.71
2022-12-25T16:13:04.161Z,10.23
2022-12-25T16:16:07.424Z,9.00
2022-12-25T16:19:10.285Z,8.36
2022-12-25T16:22:18.412Z,9.33
2022-12-25T16:25:21.360Z,10.78
2022-12-25T16:28:24.267Z,10.75
2022-12-25T16:31:27.188Z,9.48
2022-12-25T16:34:30.020Z,8.40
2022-12-25T16:37:32.848Z,7.91
2022-12-25T16:40:35.793Z,8.43
2022-12-25T16:43:38.591Z,8.58
2022-12-25T16:46:41.481Z,8.62
2022-12-25T16:49:44.362Z,8.26
2022-12-25T16:52:47.218Z,8.06
2022-12-25T16:55:50.156Z,8.25
2022-12-25T16:58:53.027Z,8.41
2022-12-25T17:01:55.948Z,8.53
2022-12-25T17:05:00.674Z,8.57
2022-12-25T17:08:03.715Z,8.60
2022-12-25T17:11:06.766Z,8.65
2022-12-25T17:14:10.752Z,8.76
2022-12-25T17:17:13.698Z,8.84
2022-12-25T17:20:16.650Z,8.89
2022-12-25T17:23:20.940Z,8.91
2022-12-25T17:26:25.041Z,8.92
2022-12-25T17:29:27.965Z,9.03
2022-12-25T17:32:31.012Z,9.09
2022-12-25T17:35:37.187Z,9.15
2022-12-25T17:38:40.547Z,9.22
2022-12-25T17:41:43.358Z,9.29
2022-12-25T17:44:46.451Z,9.37
2022-12-25T17:47:49.287Z,9.47
2022-12-25T17:50:52.112Z,9.57
2022-12-25T17:53:57.334Z,9.59
2022-12-25T17:57:00.115Z,9.65
2022-12-25T18:00:03.352Z,9.70
2022-12-25T18:03:11.558Z,9.77
2022-12-25T18:06:18.696Z,9.82
2022-12-25T18:09:21.775Z,9.84
2022-12-25T18:12:24.616Z,9.84
2022-12-25T18:15:27.510Z,9.83
2022-12-25T18:18:31.212Z,9.72
2022-12-25T18:21:34.571Z,9.59
2022-12-25T18:24:37.949Z,9.46
2022-12-25T18:27:40.848Z,9.42
2022-12-25T18:30:45.196Z,9.44
2022-12-25T18:33:48.297Z,9.59
2022-12-25T18:36:51.109Z,9.71
2022-12-25T18:39:54.036Z,9.97
2022-12-25T18:43:02.997Z,10.17
2022-12-25T18:46:06.908Z,10.30
2022-12-25T18:49:11.146Z,10.26
2022-12-25T18:52:48.868Z,10.04
2022-12-25T18:55:40.773Z,9.98
2022-12-25T18:58:43.839Z,9.93
2022-12-25T19:01:46.927Z,9.85
2022-12-25T19:04:49.936Z,9.82
2022-12-25T19:07:53.111Z,9.82
2022-12-25T19:10:56.265Z,9.77
2022-12-25T19:13:59.239Z,9.77
2022-12-25T19:17:04.963Z,9.75
2022-12-25T19:20:08.589Z,9.71
2022-12-25T19:23:11.404Z,9.93
2022-12-25T19:26:14.269Z,10.44
2022-12-25T19:29:17.555Z,10.75
2022-12-25T19:32:20.627Z,11.19
2022-12-25T19:35:23.677Z,11.67
2022-12-25T19:38:26.559Z,11.95
2022-12-25T19:41:29.452Z,11.91
2022-12-25T19:44:32.333Z,11.05
2022-12-25T19:47:35.158Z,10.51
2022-12-25T19:50:38.021Z,10.43
2022-12-25T19:53:40.851Z,10.38
2022-12-25T19:56:43.794Z,10.33
2022-12-25T19:59:46.614Z,10.85
2022-12-25T20:02:49.605Z,11.46
2022-12-25T20:05:56.757Z,12.74
2022-12-25T20:09:09.281Z,12.58
2022-12-25T20:12:14.855Z,11.34
2022-12-25T20:15:22.795Z,10.53
2022-12-25T20:18:25.723Z,11.66
2022-12-25T20:21:30.139Z,12.55
2022-12-25T20:24:33.075Z,11.55
2022-12-25T20:27:36.142Z,10.57
2022-12-25T20:30:40.191Z,10.79
2022-12-25T20:33:43.907Z,11.39
2022-12-25T20:36:46.784Z,12.37
2022-12-25T20:39:49.604Z,11.80
2022-12-25T20:42:52.399Z,10.71
2022-12-25T20:45:55.576Z,10.56
2022-12-25T20:48:58.708Z,11.86
2022-12-25T20:52:05.365Z,12.14
2022-12-25T20:55:08.770Z,11.19
2022-12-25T20:58:11.899Z,10.42
2022-12-25T21:01:18.081Z,10.52
2022-12-25T21:04:21.484Z,11.28
2022-12-25T21:07:24.289Z,11.60
2022-12-25T21:10:27.483Z,11.63
2022-12-25T21:13:36.486Z,11.50
2022-12-25T21:16:39.393Z,11.38
2022-12-25T21:19:42.302Z,11.19
2022-12-25T21:22:45.215Z,10.97
2022-12-25T21:25:48.905Z,10.86
2022-12-25T21:28:55.102Z,10.68
2022-12-25T21:32:16.836Z,10.72
2022-12-25T21:35:19.617Z,10.82
2022-12-25T21:38:22.501Z,11.21
2022-12-25T21:41:26.664Z,11.27
2022-12-25T21:44:29.456Z,11.16
2022-12-25T21:48:00.419Z,11.07
2022-12-25T21:51:14.034Z,11.18
2022-12-25T21:54:19.483Z,11.15
2022-12-25T21:57:22.323Z,11.02
2022-12-25T22:00:25.133Z,10.91
2022-12-25T22:03:28.154Z,10.82
2022-12-25T22:06:50.544Z,10.69
2022-12-25T22:09:53.502Z,10.47
2022-12-25T22:13:14.786Z,10.38
2022-12-25T22:16:36.374Z,10.30
2022-12-25T22:19:45.452Z,10.19
2022-12-25T22:22:48.525Z,10.28
2022-12-25T22:25:51.328Z,10.34
2022-12-25T22:28:54.166Z,10.33
2022-12-25T22:31:56.946Z,10.34
2022-12-25T22:35:00.628Z,10.32
2022-12-25T22:38:03.469Z,10.21
2022-12-25T22:41:07.044Z,10.10
2022-12-25T22:44:18.252Z,10.05
2022-12-25T22:47:21.965Z,10.15
2022-12-25T22:50:24.804Z,10.40
2022-12-25T22:53:27.611Z,10.41
2022-12-25T22:56:30.473Z,10.43
2022-12-25T22:59:33.398Z,10.30
2022-12-25T23:02:36.568Z,10.20
2022-12-25T23:05:39.756Z,10.03
2022-12-25T23:08:42.665Z,9.92
2022-12-25T23:11:45.908Z,10.10
2022-12-25T23:14:48.715Z,10.15
2022-12-25T23:18:10.254Z,10.09
2022-12-25T23:21:34.731Z,10.05
2022-12-25T23:24:56.478Z,10.00
2022-12-25T23:27:59.297Z,9.97
2022-12-25T23:31:02.948Z,9.96
2022-12-25T23:34:06.959Z,9.92
2022-12-25T23:37:10.808Z,9.96
2022-12-25T23:40:13.605Z,10.00
2022-12-25T23:43:16.385Z,9.99
2022-12-25T23:46:19.831Z,10.02
2022-12-25T23:49:24.729Z,10.11
2022-12-25T23:52:27.604Z,10.17
2022-12-25T23:55:30.378Z,10.23
2022-12-25T23:58:33.228Z,10.29
